createdAt,value
2022-09-16T00:00:30.045Z,1.92
2022-09-16T00:03:02.131Z,1.75
2022-09-16T00:05:40.056Z,1.55
2022-09-16T00:08:12.322Z,1.30
2022-09-16T00:10:44.414Z,1.48
2022-09-16T00:13:16.918Z,1.55
2022-09-16T00:15:53.261Z,1.40
2022-09-16T00:18:25.291Z,1.42
2022-09-16T00:20:58.659Z,1.50
2022-09-16T00:23:30.635Z,1.23
2022-09-16T00:26:03.726Z,1.05
2022-09-16T00:28:35.654Z,2.28
2022-09-16T00:31:07.726Z,1.60
2022-09-16T00:33:39.746Z,1.33
2022-09-16T00:36:15.381Z,1.50
2022-09-16T00:38:51.321Z,2.03
2022-09-16T00:41:25.879Z,1.77
2022-09-16T00:44:00.077Z,1.60
2022-09-16T00:46:36.128Z,1.25
2022-09-16T00:49:15.746Z,1.98
2022-09-16T00:51:52.445Z,2.10
2022-09-16T00:54:25.459Z,2.20
2022-09-16T00:56:59.873Z,2.42
2022-09-16T00:59:34.685Z,2.20
2022-09-16T01:02:09.621Z,2.10
2022-09-16T01:04:48.388Z,1.65
2022-09-16T01:07:30.217Z,1.70
2022-09-16T01:10:02.174Z,1.90
2022-09-16T01:12:35.116Z,1.85
2022-09-16T01:15:07.840Z,1.55
2022-09-16T01:18:11.614Z,1.50
2022-09-16T01:21:11.334Z,1.60
2022-09-16T01:24:16.317Z,1.40
2022-09-16T01:27:13.009Z,1.88
2022-09-16T01:30:06.799Z,2.13
2022-09-16T01:32:54.166Z,1.15
2022-09-16T01:35:35.572Z,1.48
2022-09-16T01:38:18.841Z,1.67
2022-09-16T01:41:00.817Z,1.40
2022-09-16T01:43:43.276Z,1.60
2022-09-16T01:46:22.514Z,1.52
2022-09-16T01:49:01.495Z,1.45
2022-09-16T01:51:42.232Z,1.83
2022-09-16T01:54:20.813Z,1.80
2022-09-16T01:56:59.096Z,1.70
2022-09-16T01:59:37.831Z,2.00
2022-09-16T02:02:16.500Z,1.75
2022-09-16T02:04:54.863Z,1.45
2022-09-16T02:07:32.606Z,1.40
2022-09-16T02:10:10.803Z,1.70
2022-09-16T02:12:45.331Z,1.48
2022-09-16T02:15:22.281Z,1.33
2022-09-16T02:18:02.617Z,1.60
2022-09-16T02:20:40.109Z,1.42
2022-09-16T02:23:17.403Z,1.13
2022-09-16T02:25:51.071Z,1.48
2022-09-16T02:28:27.433Z,1.33
2022-09-16T02:31:05.804Z,1.17
2022-09-16T02:33:44.713Z,1.00
2022-09-16T02:36:22.614Z,1.60
2022-09-16T02:38:58.006Z,1.33
2022-09-16T02:41:30.161Z,1.50
2022-09-16T02:44:03.018Z,1.45
2022-09-16T02:46:40.165Z,1.25
2022-09-16T02:49:18.765Z,1.10
2022-09-16T02:51:58.670Z,1.33
2022-09-16T02:54:36.913Z,1.23
2022-09-16T02:57:10.239Z,1.80
2022-09-16T02:59:42.461Z,1.73
2022-09-16T03:02:14.485Z,1.40
2022-09-16T03:04:46.451Z,0.98
2022-09-16T03:07:19.905Z,1.13
2022-09-16T03:09:52.446Z,1.05
2022-09-16T03:12:40.923Z,1.23
2022-09-16T03:15:28.320Z,1.20
2022-09-16T03:18:22.670Z,1.10
2022-09-16T03:21:00.157Z,1.05
2022-09-16T03:23:47.277Z,1.10
2022-09-16T03:26:25.477Z,1.13
2022-09-16T03:29:07.952Z,1.48
2022-09-16T03:31:48.412Z,1.40
2022-09-16T03:37:01.482Z,1.10
2022-09-16T03:39:35.796Z,1.42
2022-09-16T03:42:11.426Z,1.42
2022-09-16T03:44:43.452Z,1.42
2022-09-16T03:47:15.965Z,1.05
2022-09-16T03:49:48.006Z,1.88
2022-09-16T03:52:19.986Z,1.45
2022-09-16T03:54:53.304Z,1.45
2022-09-16T03:57:27.576Z,2.05
2022-09-16T03:59:59.818Z,1.00
2022-09-16T04:02:31.749Z,1.10
2022-09-16T04:05:04.440Z,1.00
2022-09-16T04:07:37.002Z,0.90
2022-09-16T04:10:12.493Z,1.48
2022-09-16T04:12:44.952Z,0.80
2022-09-16T04:15:17.137Z,0.80
2022-09-16T04:17:49.070Z,0.63
2022-09-16T04:20:21.473Z,0.93
2022-09-16T04:22:53.439Z,0.90
2022-09-16T04:25:26.785Z,1.00
2022-09-16T04:27:58.706Z,1.00
2022-09-16T04:30:31.046Z,1.08
2022-09-16T04:33:03.188Z,1.08
2022-09-16T04:35:35.152Z,0.98
2022-09-16T04:38:07.136Z,1.27
2022-09-16T04:40:40.541Z,1.30
2022-09-16T04:43:13.598Z,1.05
2022-09-16T04:45:45.554Z,1.25
2022-09-16T04:48:18.117Z,1.48
2022-09-16T04:50:50.050Z,1.02
2022-09-16T04:53:22.265Z,1.27
2022-09-16T04:56:03.166Z,1.13
2022-09-16T04:58:35.277Z,0.95
2022-09-16T05:01:12.843Z,1.20
2022-09-16T05:03:46.311Z,1.00
2022-09-16T05:06:20.904Z,1.10
2022-09-16T05:08:54.479Z,1.35
2022-09-16T05:11:29.984Z,1.45
2022-09-16T05:14:03.490Z,1.38
2022-09-16T05:16:35.774Z,1.23
2022-09-16T05:19:08.081Z,1.35
2022-09-16T05:21:40.894Z,1.33
2022-09-16T05:24:13.631Z,1.20
2022-09-16T05:26:46.955Z,1.17
2022-09-16T05:29:19.124Z,1.30
2022-09-16T05:31:51.092Z,0.80
2022-09-16T05:34:28.703Z,0.93
2022-09-16T05:37:00.673Z,1.08
2022-09-16T05:39:32.616Z,0.88
2022-09-16T05:42:06.532Z,0.82
2022-09-16T05:44:38.441Z,1.25
2022-09-16T05:47:10.512Z,1.15
2022-09-16T05:49:42.460Z,1.00
2022-09-16T05:52:14.365Z,1.05
2022-09-16T05:54:46.302Z,1.10
2022-09-16T05:57:21.671Z,0.82
2022-09-16T05:59:53.603Z,1.15
2022-09-16T06:02:25.709Z,0.73
2022-09-16T06:04:58.926Z,0.77
2022-09-16T06:07:30.829Z,1.10
2022-09-16T06:10:02.788Z,1.02
2022-09-16T06:12:36.160Z,1.00
2022-09-16T06:15:10.172Z,1.00
2022-09-16T06:17:42.119Z,1.00
2022-09-16T06:20:14.949Z,1.60
2022-09-16T06:22:46.940Z,2.55
2022-09-16T06:25:18.859Z,1.73
2022-09-16T06:27:52.334Z,1.42
2022-09-16T06:30:26.091Z,2.67
2022-09-16T06:33:01.273Z,4.10
2022-09-16T06:35:34.969Z,1.67
2022-09-16T06:38:06.935Z,1.08
2022-09-16T06:40:39.051Z,1.00
2022-09-16T06:43:12.399Z,1.17
2022-09-16T06:45:44.398Z,1.13
2022-09-16T06:48:16.445Z,1.20
2022-09-16T06:50:48.417Z,1.60
2022-09-16T06:53:20.380Z,1.08
2022-09-16T06:55:52.493Z,1.17
2022-09-16T06:58:25.914Z,1.65
2022-09-16T07:00:58.038Z,1.60
2022-09-16T07:03:30.029Z,1.38
2022-09-16T07:06:02.184Z,1.08
2022-09-16T07:08:35.991Z,1.92
2022-09-16T07:11:11.300Z,1.17
2022-09-16T07:13:47.096Z,1.20
2022-09-16T07:16:21.240Z,1.33
2022-09-16T07:18:57.426Z,0.98
2022-09-16T07:21:33.070Z,1.05
2022-09-16T07:24:05.226Z,1.05
2022-09-16T07:26:40.506Z,1.08
2022-09-16T07:29:15.850Z,1.85
2022-09-16T07:31:48.273Z,1.25
2022-09-16T07:34:20.516Z,1.30
2022-09-16T07:36:52.963Z,1.08
2022-09-16T07:39:25.840Z,1.15
2022-09-16T07:41:59.179Z,0.63
2022-09-16T07:44:34.982Z,1.25
2022-09-16T07:47:07.006Z,1.83
2022-09-16T07:49:38.946Z,1.00
2022-09-16T07:52:10.912Z,0.70
2022-09-16T07:54:42.971Z,0.70
2022-09-16T07:57:14.921Z,0.73
2022-09-16T07:59:49.172Z,0.80
2022-09-16T08:02:21.248Z,0.85
2022-09-16T08:04:53.350Z,1.02
2022-09-16T08:07:25.307Z,0.98
2022-09-16T08:09:57.310Z,0.75
2022-09-16T08:12:33.578Z,1.00
2022-09-16T08:15:08.727Z,0.90
2022-09-16T08:17:40.753Z,0.80
2022-09-16T08:20:12.705Z,0.90
2022-09-16T08:22:44.718Z,1.80
2022-09-16T08:25:16.992Z,0.80
2022-09-16T08:27:52.806Z,0.70
2022-09-16T08:30:29.140Z,0.77
2022-09-16T08:33:01.371Z,0.80
2022-09-16T08:35:33.340Z,1.10
2022-09-16T08:38:05.899Z,1.05
2022-09-16T08:40:38.023Z,0.70
2022-09-16T08:43:16.547Z,1.00
2022-09-16T08:45:54.649Z,0.80
2022-09-16T08:48:35.353Z,0.75
2022-09-16T08:51:12.973Z,0.55
2022-09-16T08:53:49.495Z,1.30
2022-09-16T08:56:24.683Z,0.80
2022-09-16T08:59:00.893Z,0.80
2022-09-16T09:01:39.938Z,0.63
2022-09-16T09:04:13.103Z,0.50
2022-09-16T09:06:58.859Z,0.75
2022-09-16T09:09:48.434Z,0.70
2022-09-16T09:12:29.853Z,0.60
2022-09-16T09:15:24.896Z,1.35
2022-09-16T09:18:16.417Z,0.70
2022-09-16T09:20:57.048Z,0.75
2022-09-16T09:23:44.346Z,1.02
2022-09-16T09:26:22.178Z,0.52
2022-09-16T09:29:10.655Z,1.08
2022-09-16T09:31:52.016Z,0.50
2022-09-16T09:34:38.404Z,0.60
2022-09-16T09:37:31.842Z,0.87
2022-09-16T09:40:11.335Z,0.68
2022-09-16T09:42:50.631Z,1.13
2022-09-16T09:45:28.621Z,0.90
2022-09-16T09:48:06.221Z,1.10
2022-09-16T09:50:43.757Z,0.65
2022-09-16T09:53:21.598Z,0.70
2022-09-16T09:56:00.489Z,0.70
2022-09-16T09:58:37.317Z,0.82
2022-09-16T10:01:11.382Z,0.65
2022-09-16T10:03:45.412Z,0.73
2022-09-16T10:06:26.121Z,0.70
2022-09-16T10:08:59.161Z,0.70
2022-09-16T10:11:32.670Z,0.65
2022-09-16T10:14:05.856Z,0.50
2022-09-16T10:16:38.508Z,1.10
2022-09-16T10:19:19.104Z,0.47
2022-09-16T10:21:54.395Z,0.98
2022-09-16T10:24:37.068Z,0.40
2022-09-16T10:27:22.730Z,0.80
2022-09-16T10:30:06.754Z,0.60
2022-09-16T10:32:46.958Z,0.73
2022-09-16T10:35:22.363Z,0.70
2022-09-16T10:37:58.669Z,1.15
2022-09-16T10:40:31.798Z,0.60
2022-09-16T10:43:13.712Z,1.17
2022-09-16T10:45:48.109Z,0.88
2022-09-16T10:48:22.311Z,1.13
2022-09-16T10:50:59.139Z,1.05
2022-09-16T10:53:39.280Z,1.13
2022-09-16T10:56:18.993Z,0.70
2022-09-16T10:59:02.052Z,0.75
2022-09-16T11:01:46.803Z,0.63
2022-09-16T11:05:00.150Z,0.77
2022-09-16T11:07:42.295Z,0.90
2022-09-16T11:10:27.540Z,0.60
2022-09-16T11:13:25.163Z,1.00
2022-09-16T11:16:11.570Z,1.35
2022-09-16T11:18:56.846Z,0.77
2022-09-16T11:21:58.810Z,0.85
2022-09-16T11:24:53.892Z,1.00
2022-09-16T11:27:42.017Z,1.00
2022-09-16T11:30:17.414Z,0.93
2022-09-16T11:36:23.875Z,0.98
2022-09-16T11:39:06.798Z,1.20
2022-09-16T11:41:44.171Z,0.98
2022-09-16T11:44:31.286Z,0.88
2022-09-16T11:47:16.546Z,0.70
2022-09-16T11:50:03.521Z,0.70
2022-09-16T11:52:48.738Z,0.50
2022-09-16T11:55:32.803Z,0.57
2022-09-16T11:58:15.438Z,0.70
2022-09-16T12:00:51.952Z,0.60
2022-09-16T12:03:31.073Z,0.70
2022-09-16T12:06:09.092Z,0.40
2022-09-16T12:08:52.103Z,0.60
2022-09-16T12:11:33.126Z,0.50
2022-09-16T12:14:12.304Z,0.35
2022-09-16T12:16:49.539Z,0.43
2022-09-16T12:19:31.002Z,0.50
2022-09-16T12:22:08.255Z,0.68
2022-09-16T12:24:45.163Z,0.70
2022-09-16T12:27:35.764Z,0.55
2022-09-16T12:30:15.869Z,0.93
2022-09-16T12:32:57.600Z,0.82
2022-09-16T12:35:34.611Z,0.77
2022-09-16T12:38:16.847Z,0.63
2022-09-16T12:41:05.231Z,0.68
2022-09-16T12:44:06.396Z,0.70
2022-09-16T12:47:22.608Z,0.50
2022-09-16T12:50:23.025Z,0.93
2022-09-16T12:55:53.405Z,0.68
2022-09-16T12:58:45.083Z,0.68
2022-09-16T13:01:22.538Z,0.90
2022-09-16T13:04:00.391Z,0.80
2022-09-16T13:06:38.376Z,0.80
2022-09-16T13:09:21.732Z,0.70
2022-09-16T13:14:51.794Z,1.10
2022-09-16T13:17:29.511Z,3.05
2022-09-16T13:20:10.251Z,0.90
2022-09-16T13:22:49.197Z,0.75
2022-09-16T13:25:24.052Z,1.23
2022-09-16T13:27:59.252Z,0.70
2022-09-16T13:30:36.475Z,0.30
2022-09-16T13:33:29.484Z,1.23
2022-09-16T13:36:32.121Z,1.30
2022-09-16T13:39:11.179Z,0.85
2022-09-16T13:41:44.719Z,0.40
2022-09-16T13:44:41.639Z,0.50
2022-09-16T13:47:17.000Z,0.50
2022-09-16T13:49:52.135Z,0.38
2022-09-16T13:52:28.261Z,0.40
2022-09-16T13:55:12.369Z,0.60
2022-09-16T13:58:02.031Z,0.95
2022-09-16T14:00:44.582Z,0.90
2022-09-16T14:03:47.503Z,0.80
2022-09-16T14:06:53.700Z,1.35
2022-09-16T14:09:36.213Z,1.40
2022-09-16T14:12:16.938Z,2.70
2022-09-16T14:14:50.154Z,4.90
2022-09-16T14:17:24.575Z,3.30
2022-09-16T14:19:59.479Z,2.15
2022-09-16T14:22:31.798Z,2.35
2022-09-16T14:25:26.167Z,1.75
2022-09-16T14:28:17.930Z,1.75
2022-09-16T14:30:53.148Z,1.85
2022-09-16T14:33:29.744Z,1.02
2022-09-16T14:36:10.593Z,1.20
2022-09-16T14:38:47.610Z,1.20
2022-09-16T14:41:24.388Z,1.13
2022-09-16T14:44:04.041Z,1.15
2022-09-16T14:46:42.065Z,1.80
2022-09-16T14:49:15.471Z,1.48
2022-09-16T14:51:52.236Z,2.10
2022-09-16T14:54:26.454Z,2.25
2022-09-16T14:57:00.193Z,2.15
2022-09-16T14:59:35.679Z,1.85
2022-09-16T15:02:16.917Z,1.83
2022-09-16T15:04:53.863Z,1.55
2022-09-16T15:07:29.597Z,1.73
2022-09-16T15:10:05.293Z,1.65
2022-09-16T15:12:44.937Z,1.52
2022-09-16T15:15:21.596Z,1.90
2022-09-16T15:17:58.540Z,1.50
2022-09-16T15:20:33.898Z,1.63
2022-09-16T15:23:12.255Z,1.48
2022-09-16T15:25:52.800Z,1.10
2022-09-16T15:28:25.155Z,1.42
2022-09-16T15:30:59.573Z,1.25
2022-09-16T15:33:34.914Z,1.00
2022-09-16T15:36:07.907Z,1.20
2022-09-16T15:38:44.181Z,1.40
2022-09-16T15:41:18.754Z,1.45
2022-09-16T15:43:50.996Z,1.42
2022-09-16T15:46:24.880Z,1.33
2022-09-16T15:48:59.582Z,1.23
2022-09-16T15:51:36.845Z,2.50
2022-09-16T15:54:17.336Z,1.90
2022-09-16T15:59:31.657Z,1.83
2022-09-16T16:02:19.499Z,2.03
2022-09-16T16:04:51.680Z,2.42
2022-09-16T16:07:40.721Z,1.65
2022-09-16T16:10:16.885Z,1.42
2022-09-16T16:12:50.256Z,1.02
2022-09-16T16:15:25.316Z,0.77
2022-09-16T16:18:01.422Z,1.23
2022-09-16T16:20:36.216Z,1.50
2022-09-16T16:23:08.150Z,1.40
2022-09-16T16:25:40.939Z,1.70
2022-09-16T16:28:12.933Z,2.80
2022-09-16T16:30:44.964Z,1.30
2022-09-16T16:33:18.381Z,1.05
2022-09-16T16:35:50.450Z,1.90
2022-09-16T16:38:22.363Z,3.03
2022-09-16T16:40:54.343Z,1.60
2022-09-16T16:43:26.417Z,1.73
2022-09-16T16:45:58.693Z,1.70
2022-09-16T16:48:32.154Z,1.30
2022-09-16T16:51:07.832Z,1.48
2022-09-16T16:53:40.152Z,1.45
2022-09-16T16:56:15.401Z,1.05
2022-09-16T16:58:47.637Z,2.25
2022-09-16T17:01:20.817Z,1.58
2022-09-16T17:03:54.868Z,2.00
2022-09-16T17:06:27.096Z,1.60
2022-09-16T17:08:59.198Z,3.03
2022-09-16T17:11:31.701Z,1.45
2022-09-16T17:14:06.172Z,1.20
2022-09-16T17:16:38.136Z,1.38
2022-09-16T17:19:11.577Z,1.77
2022-09-16T17:21:44.151Z,1.52
2022-09-16T17:24:16.553Z,1.63
2022-09-16T17:26:49.763Z,2.78
2022-09-16T17:29:21.692Z,4.25
2022-09-16T17:31:55.582Z,8.02
2022-09-16T17:34:28.879Z,13.20
2022-09-16T17:37:00.952Z,5.60
2022-09-16T17:39:32.888Z,4.03
2022-09-16T17:42:05.239Z,4.28
2022-09-16T17:44:37.175Z,2.45
2022-09-16T17:47:09.125Z,1.98
2022-09-16T17:49:42.463Z,1.83
2022-09-16T17:52:14.455Z,1.67
2022-09-16T17:54:46.629Z,2.30
2022-09-16T17:57:18.542Z,3.03
2022-09-16T17:59:50.490Z,2.67
2022-09-16T18:02:24.176Z,2.90
2022-09-16T18:04:57.546Z,3.72
2022-09-16T18:07:29.601Z,3.20
2022-09-16T18:10:01.533Z,2.15
2022-09-16T18:12:33.691Z,1.55
2022-09-16T18:15:06.804Z,1.60
2022-09-16T18:17:41.259Z,2.33
2022-09-16T18:20:14.720Z,2.13
2022-09-16T18:22:47.009Z,2.90
2022-09-16T18:25:18.957Z,2.35
2022-09-16T18:27:50.932Z,1.70
2022-09-16T18:30:23.727Z,2.08
2022-09-16T18:32:56.620Z,1.77
2022-09-16T18:35:30.349Z,1.25
2022-09-16T18:38:02.384Z,7.65
2022-09-16T18:40:39.489Z,2.80
2022-09-16T18:43:11.641Z,4.93
2022-09-16T18:45:43.602Z,3.13
2022-09-16T18:48:15.606Z,1.92
2022-09-16T18:50:48.908Z,2.58
2022-09-16T18:53:20.827Z,1.02
2022-09-16T18:55:53.064Z,1.58
2022-09-16T18:58:25.017Z,1.40
2022-09-16T19:00:57.057Z,1.10
2022-09-16T19:03:28.982Z,1.00
2022-09-16T19:06:02.266Z,1.00
2022-09-16T19:08:34.750Z,1.23
2022-09-16T19:11:07.051Z,0.90
2022-09-16T19:13:39.659Z,1.00
2022-09-16T19:16:13.280Z,0.88
2022-09-16T19:18:45.192Z,1.00
2022-09-16T19:21:20.036Z,0.70
2022-09-16T19:23:54.606Z,0.90
2022-09-16T19:26:27.620Z,0.82
2022-09-16T19:29:01.298Z,0.80
2022-09-16T19:31:35.117Z,0.52
2022-09-16T19:34:07.927Z,1.20
2022-09-16T19:36:42.140Z,1.38
2022-09-16T19:39:14.715Z,0.90
2022-09-16T19:41:46.686Z,0.95
2022-09-16T19:44:21.557Z,1.00
2022-09-16T19:46:53.567Z,1.10
2022-09-16T19:49:26.256Z,0.80
2022-09-16T19:51:59.663Z,0.95
2022-09-16T19:54:31.576Z,1.08
2022-09-16T19:57:03.742Z,0.70
2022-09-16T19:59:35.654Z,1.15
2022-09-16T20:02:09.237Z,0.98
2022-09-16T20:04:41.154Z,1.30
2022-09-16T20:07:17.381Z,1.08
2022-09-16T20:09:49.333Z,1.10
2022-09-16T20:12:21.266Z,1.25
2022-09-16T20:14:53.218Z,0.95
2022-09-16T20:17:25.127Z,0.80
2022-09-16T20:19:57.138Z,1.13
2022-09-16T20:22:30.439Z,1.02
2022-09-16T20:25:21.967Z,1.40
2022-09-16T20:27:54.285Z,0.82
2022-09-16T20:30:26.207Z,0.80
2022-09-16T20:32:58.192Z,1.00
2022-09-16T20:35:33.244Z,2.50
2022-09-16T20:38:07.374Z,1.33
2022-09-16T20:40:39.501Z,1.08
2022-09-16T20:43:12.036Z,1.13
2022-09-16T20:45:45.117Z,1.20
2022-09-16T20:48:17.122Z,1.08
2022-09-16T20:50:49.034Z,1.40
2022-09-16T20:53:22.371Z,1.02
2022-09-16T20:56:00.507Z,0.80
2022-09-16T20:58:33.268Z,0.93
2022-09-16T21:01:06.854Z,1.20
2022-09-16T21:03:39.604Z,1.13
2022-09-16T21:06:14.590Z,0.80
2022-09-16T21:08:48.486Z,0.90
2022-09-16T21:11:21.125Z,0.60
2022-09-16T21:13:54.763Z,0.80
2022-09-16T21:16:29.675Z,1.60
2022-09-16T21:19:04.235Z,1.00
2022-09-16T21:21:37.888Z,0.90
2022-09-16T21:24:11.586Z,1.00
2022-09-16T21:26:44.286Z,0.95
2022-09-16T21:29:20.915Z,0.80
2022-09-16T21:31:53.567Z,0.75
2022-09-16T21:34:25.712Z,1.00
2022-09-16T21:36:59.613Z,1.30
2022-09-16T21:39:32.937Z,0.90
2022-09-16T21:42:05.507Z,1.00
2022-09-16T21:44:37.476Z,0.90
2022-09-16T21:47:11.396Z,1.08
2022-09-16T21:49:43.371Z,0.80
2022-09-16T21:52:15.286Z,1.20
2022-09-16T21:54:48.716Z,1.10
2022-09-16T21:57:20.869Z,1.10
2022-09-16T21:59:52.792Z,1.00
2022-09-16T22:02:28.455Z,1.30
2022-09-16T22:05:01.090Z,1.05
2022-09-16T22:07:33.000Z,1.15
2022-09-16T22:10:08.095Z,1.13
2022-09-16T22:12:40.026Z,1.23
2022-09-16T22:15:12.024Z,1.30
2022-09-16T22:17:44.151Z,1.27
2022-09-16T22:20:17.385Z,1.27
2022-09-16T22:22:49.654Z,1.20
2022-09-16T22:25:23.001Z,1.23
2022-09-16T22:27:54.920Z,1.10
2022-09-16T22:30:26.859Z,1.05
2022-09-16T22:32:58.806Z,0.82
2022-09-16T22:35:30.804Z,0.80
2022-09-16T22:38:03.134Z,1.17
2022-09-16T22:40:36.600Z,1.27
2022-09-16T22:43:08.575Z,0.85
2022-09-16T22:45:40.529Z,1.30
2022-09-16T22:48:12.445Z,0.98
2022-09-16T22:50:44.399Z,1.63
2022-09-16T22:53:16.464Z,1.05
2022-09-16T22:55:54.700Z,1.30
2022-09-16T22:58:28.075Z,1.30
2022-09-16T23:01:05.463Z,1.40
2022-09-16T23:03:38.325Z,1.38
2022-09-16T23:06:12.531Z,1.60
2022-09-16T23:08:47.486Z,1.10
2022-09-16T23:11:23.771Z,1.85
2022-09-16T23:13:56.626Z,1.30
2022-09-16T23:16:30.441Z,1.30
2022-09-16T23:19:04.572Z,1.05
2022-09-16T23:21:37.633Z,1.33
2022-09-16T23:24:15.181Z,1.25
2022-09-16T23:26:49.159Z,1.40
2022-09-16T23:29:21.117Z,1.33
2022-09-16T23:31:53.029Z,1.05
2022-09-16T23:34:24.949Z,1.50
2022-09-16T23:36:56.894Z,1.45
2022-09-16T23:39:29.505Z,1.42
2022-09-16T23:42:02.837Z,1.38
2022-09-16T23:44:34.958Z,1.02
2022-09-16T23:47:07.391Z,0.77
2022-09-16T23:49:39.841Z,1.58
2022-09-16T23:52:11.983Z,1.30
2022-09-16T23:54:43.921Z,1.15
2022-09-16T23:57:17.236Z,1.08
2022-09-16T23:59:49.890Z,1.40
